Time;durP1;ratioP1;P1;durP2;ratioP2;P2;SDS_P1;SDS_P2;PMS_P1;PMS_P2;Temp;Humidity;BMP_temperature;BMP_pressure;BME280_temperature;BME280_humidity;BME280_pressure;Samples;Min_cycle;Max_cycle;Signal;HPM_P1;HPM_P2
2021/12/10 00:00:08;;;;;;;8.10;2.60;;;1.50;99.90;;;;;;5051234;28;20477;-66
2021/12/10 00:02:35;;;;;;;7.18;2.78;;;2.10;99.90;;;;;;5051666;28;20025;-66
2021/12/10 00:05:05;;;;;;;6.82;2.70;;;1.60;99.90;;;;;;5050668;28;20036;-66
2021/12/10 00:07:31;;;;;;;9.85;2.92;;;1.80;99.90;;;;;;5051786;28;20017;-66
2021/12/10 00:10:01;;;;;;;10.45;2.25;;;0.90;99.90;;;;;;5051547;28;20394;-65
2021/12/10 00:12:40;;;;;;;10.95;2.88;;;1.00;99.90;;;;;;5051051;28;20029;-67
2021/12/10 00:15:07;;;;;;;7.47;2.72;;;1.40;99.90;;;;;;5032754;28;20037;-66
2021/12/10 00:17:33;;;;;;;9.35;3.05;;;1.30;99.90;;;;;;5051371;28;20029;-67
2021/12/10 00:20:01;;;;;;;9.60;3.15;;;0.90;99.90;;;;;;5051292;28;20127;-66
2021/12/10 00:22:41;;;;;;;5.35;2.45;;;1.10;99.90;;;;;;5051463;28;20028;-65
2021/12/10 00:25:17;;;;;;;6.30;2.63;;;0.40;99.90;;;;;;5050503;28;20025;-67
2021/12/10 00:27:44;;;;;;;11.95;2.88;;;1.10;99.90;;;;;;5051225;28;20055;-65
2021/12/10 00:30:15;;;;;;;6.63;2.35;;;1.80;99.90;;;;;;5033360;28;20055;-65
2021/12/10 00:32:47;;;;;;;13.43;2.58;;;1.30;99.90;;;;;;5051424;28;20029;-65
2021/12/10 00:35:18;;;;;;;9.75;3.28;;;0.60;99.90;;;;;;5050712;28;20044;-65
2021/12/10 00:37:43;;;;;;;7.50;2.67;;;0.80;99.90;;;;;;5051790;28;20520;-65
2021/12/10 00:40:11;;;;;;;11.13;2.53;;;0.60;99.90;;;;;;5051359;28;20033;-65
2021/12/10 00:42:37;;;;;;;9.25;2.67;;;0.70;99.90;;;;;;5052378;28;20025;-65
2021/12/10 00:45:07;;;;;;;8.35;2.83;;;0.50;99.90;;;;;;5057428;28;20029;-65
2021/12/10 00:47:33;;;;;;;9.90;3.47;;;0.50;99.90;;;;;;5062906;28;20024;-64
2021/12/10 00:49:59;;;;;;;11.05;3.38;;;0.70;99.90;;;;;;5065401;28;20104;-64
2021/12/10 00:52:25;;;;;;;13.02;3.10;;;0.60;99.90;;;;;;5075094;28;20029;-64
2021/12/10 00:54:51;;;;;;;6.53;2.70;;;1.00;99.90;;;;;;5074482;28;20021;-65
2021/12/10 00:57:17;;;;;;;9.05;2.50;;;0.50;99.90;;;;;;5074597;28;20095;-67
2021/12/10 00:59:46;;;;;;;10.20;2.33;;;0.90;99.90;;;;;;5063273;28;20048;-67
2021/12/10 01:02:14;;;;;;;7.90;2.42;;;0.20;99.90;;;;;;5074958;28;20070;-64
2021/12/10 01:04:44;;;;;;;8.75;2.65;;;0.70;99.90;;;;;;5073877;28;20032;-67
2021/12/10 01:07:16;;;;;;;11.75;2.55;;;1.50;99.90;;;;;;5075312;28;20058;-66
2021/12/10 01:09:46;;;;;;;8.85;2.20;;;0.90;99.90;;;;;;5074671;28;20463;-66
2021/12/10 01:12:25;;;;;;;8.13;2.60;;;0.80;99.90;;;;;;5074559;28;20535;-65
2021/12/10 01:15:38;;;;;;;6.50;2.35;;;0.80;99.90;;;;;;5073734;28;20033;-65
2021/12/10 01:27:00;;;;;;;6.68;2.45;;;0.30;99.90;;;;;;5053631;28;20104;-65
2021/12/10 01:28:59;;;;;;;5.47;2.38;;;1.20;99.90;;;;;;5046739;28;20041;-66
2021/12/10 01:31:26;;;;;;;10.00;2.33;;;0.40;99.90;;;;;;5054226;28;20029;-66
2021/12/10 01:33:53;;;;;;;5.15;2.30;;;0.20;99.90;;;;;;5053949;28;20048;-65
2021/12/10 01:36:20;;;;;;;9.50;2.72;;;0.30;99.90;;;;;;5053367;28;20028;-65
2021/12/10 01:38:50;;;;;;;4.95;2.45;;;1.30;99.90;;;;;;5054076;28;20507;-65
2021/12/10 01:41:18;;;;;;;5.82;2.60;;;-0.20;99.90;;;;;;5053801;28;20025;-65
2021/12/10 01:43:47;;;;;;;10.23;2.53;;;0.00;99.90;;;;;;5054066;28;20044;-65
2021/12/10 01:46:18;;;;;;;8.35;2.50;;;-0.20;99.90;;;;;;5052328;28;20017;-66
2021/12/10 01:48:46;;;;;;;5.90;2.15;;;-0.10;99.90;;;;;;5053620;28;20032;-65
2021/12/10 01:51:17;;;;;;;5.57;2.45;;;-0.20;99.90;;;;;;5054094;28;20025;-65
2021/12/10 01:53:47;;;;;;;10.20;2.47;;;0.40;99.90;;;;;;5053942;28;20050;-65
2021/12/10 01:56:18;;;;;;;4.00;2.40;;;-1.00;99.90;;;;;;5052834;28;20136;-65
2021/12/10 01:58:45;;;;;;;10.82;2.67;;;-0.10;99.90;;;;;;5053420;28;20441;-66
2021/12/10 02:01:16;;;;;;;4.28;2.38;;;-0.30;99.90;;;;;;5053943;28;20032;-65
2021/12/10 02:03:44;;;;;;;8.40;2.58;;;1.10;99.90;;;;;;5053963;28;20044;-65
2021/12/10 02:06:10;;;;;;;6.70;2.17;;;-0.40;99.90;;;;;;5035163;28;20376;-65
2021/12/10 02:08:37;;;;;;;6.93;2.42;;;-1.10;99.90;;;;;;5053780;28;20154;-65
2021/12/10 02:11:04;;;;;;;5.18;2.30;;;0.00;99.90;;;;;;5053366;28;20040;-65
2021/12/10 02:13:31;;;;;;;4.97;2.28;;;-0.10;99.90;;;;;;5035971;28;20040;-65
2021/12/10 02:15:56;;;;;;;6.88;3.10;;;0.50;99.90;;;;;;5052798;28;20140;-65
2021/12/10 02:18:22;;;;;;;7.30;2.78;;;-0.20;99.90;;;;;;5053442;28;20174;-65
2021/12/10 02:20:53;;;;;;;11.05;2.40;;;-0.50;99.90;;;;;;5053439;28;20025;-65
2021/12/10 02:23:20;;;;;;;7.32;2.65;;;-0.30;99.90;;;;;;5053540;28;20529;-65
2021/12/10 02:25:48;;;;;;;7.53;2.53;;;-0.40;99.90;;;;;;5034417;28;20025;-65
2021/12/10 02:28:14;;;;;;;4.70;2.53;;;-0.30;99.90;;;;;;5053060;28;20479;-66
2021/12/10 02:30:42;;;;;;;6.53;2.25;;;0.00;99.90;;;;;;5053614;28;20044;-65
2021/12/10 02:33:09;;;;;;;10.60;3.05;;;0.10;99.90;;;;;;5054205;28;20025;-65
2021/12/10 02:35:35;;;;;;;8.23;2.60;;;0.20;99.90;;;;;;5051494;28;20021;-65
2021/12/10 02:38:01;;;;;;;12.18;2.70;;;-0.20;99.90;;;;;;5052050;28;20099;-66
2021/12/10 02:40:29;;;;;;;9.93;2.95;;;;;;;;;;5052686;28;20036;-65
2021/12/10 02:42:56;;;;;;;7.40;2.50;;;-0.60;99.90;;;;;;5052726;28;20056;-66
2021/12/10 02:45:24;;;;;;;11.52;2.42;;;-0.40;99.90;;;;;;5052376;28;20025;-66
2021/12/10 02:47:52;;;;;;;5.68;2.60;;;-0.40;99.90;;;;;;5053049;28;20406;-66
2021/12/10 02:50:21;;;;;;;5.35;2.47;;;-0.50;99.90;;;;;;5034918;28;20064;-66
2021/12/10 02:52:46;;;;;;;6.68;2.55;;;-0.10;99.90;;;;;;5053077;28;20116;-66
2021/12/10 02:55:15;;;;;;;5.82;2.22;;;-0.10;99.90;;;;;;5052108;28;20103;-66
2021/12/10 02:57:46;;;;;;;6.78;2.42;;;0.10;99.90;;;;;;5052654;28;20491;-66
2021/12/10 03:00:16;;;;;;;7.65;2.60;;;-0.30;99.90;;;;;;5052764;28;20533;-65
2021/12/10 03:02:42;;;;;;;9.70;3.22;;;-0.30;99.90;;;;;;5052992;28;20021;-65
2021/12/10 03:05:10;;;;;;;7.93;2.17;;;-0.20;99.90;;;;;;5052211;28;20036;-66
2021/12/10 03:07:37;;;;;;;7.38;2.53;;;-0.90;99.90;;;;;;5052282;28;20068;-65
2021/12/10 03:10:07;;;;;;;9.20;2.38;;;-0.20;99.90;;;;;;5051672;28;20076;-66
2021/12/10 03:12:33;;;;;;;6.65;2.25;;;-0.50;99.90;;;;;;5051901;28;20036;-66
2021/12/10 03:14:59;;;;;;;9.40;2.95;;;-0.30;99.90;;;;;;5061068;23;20056;-61
2021/12/10 03:17:29;;;;;;;4.50;2.03;;;-0.80;99.90;;;;;;5051444;28;20043;-65
2021/12/10 03:19:55;;;;;;;8.48;2.75;;;-0.80;99.90;;;;;;5034354;28;20536;-64
2021/12/10 03:22:23;;;;;;;9.43;2.63;;;-0.70;99.90;;;;;;5031162;28;20025;-66
2021/12/10 03:24:52;;;;;;;11.43;2.60;;;;;;;;;;5015498;28;20032;-63
2021/12/10 03:27:21;;;;;;;7.88;2.30;;;0.00;99.90;;;;;;5012784;28;20026;-63
2021/12/10 03:29:48;;;;;;;9.32;2.50;;;0.10;99.90;;;;;;5012259;28;20025;-64
2021/12/10 03:32:20;;;;;;;5.65;2.88;;;-0.20;99.90;;;;;;5012596;28;20068;-62
2021/12/10 03:34:46;;;;;;;4.38;2.15;;;-0.30;99.90;;;;;;5011471;28;20044;-64
2021/12/10 03:37:13;;;;;;;4.43;2.53;;;-0.50;99.90;;;;;;5012860;28;20080;-63
2021/12/10 03:39:38;;;;;;;5.85;2.70;;;-0.70;99.90;;;;;;5012557;28;20029;-60
2021/12/10 03:42:06;;;;;;;8.85;2.38;;;0.00;99.90;;;;;;5012456;28;20034;-64
2021/12/10 03:44:32;;;;;;;6.00;2.38;;;-0.50;99.90;;;;;;5023608;28;20033;-64
2021/12/10 03:46:58;;;;;;;8.38;2.65;;;-1.10;99.90;;;;;;5032035;28;20029;-63
2021/12/10 03:49:24;;;;;;;8.13;3.03;;;-0.80;99.90;;;;;;5035863;28;20033;-65
2021/12/10 03:51:50;;;;;;;2.90;2.38;;;-1.10;99.90;;;;;;5036986;28;20490;-62
2021/12/10 03:54:18;;;;;;;7.35;2.83;;;-0.80;99.90;;;;;;5032319;28;20033;-64
2021/12/10 03:56:46;;;;;;;8.45;3.17;;;-0.80;99.90;;;;;;5032750;28;20092;-63
2021/12/10 03:59:15;;;;;;;8.80;3.58;;;-0.50;99.90;;;;;;5032834;28;20043;-62
2021/12/10 04:01:43;;;;;;;11.02;2.90;;;-0.60;99.90;;;;;;5033536;28;20387;-62
2021/12/10 04:04:14;;;;;;;11.27;2.60;;;-0.80;99.90;;;;;;5033425;28;20029;-63
2021/12/10 04:06:40;;;;;;;8.80;3.47;;;-0.70;99.90;;;;;;5031235;28;20025;-63
2021/12/10 04:09:06;;;;;;;10.38;3.13;;;-0.50;99.90;;;;;;5031571;28;20174;-62
2021/12/10 04:11:33;;;;;;;11.30;3.70;;;-1.10;99.90;;;;;;5031727;28;20033;-63
2021/12/10 04:13:59;;;;;;;9.25;3.65;;;-0.90;99.90;;;;;;5031224;28;20033;-63
2021/12/10 04:16:29;;;;;;;9.82;4.05;;;-1.00;99.90;;;;;;5031097;28;20067;-63
2021/12/10 04:18:56;;;;;;;10.55;4.28;;;;;;;;;;5032104;28;20052;-64
2021/12/10 04:21:23;;;;;;;10.32;3.63;;;-1.30;99.90;;;;;;5031817;28;20031;-65
2021/12/10 04:23:49;;;;;;;8.18;3.30;;;0.00;99.90;;;;;;5032076;28;20021;-63
2021/12/10 04:26:20;;;;;;;7.30;4.18;;;-1.10;99.90;;;;;;5031532;28;20021;-65
2021/12/10 04:28:46;;;;;;;8.52;4.25;;;-1.30;99.90;;;;;;5031475;28;20447;-63
2021/12/10 04:31:13;;;;;;;6.78;3.50;;;-0.10;99.90;;;;;;5031769;28;20041;-65
2021/12/10 04:33:39;;;;;;;6.45;2.88;;;-0.80;99.90;;;;;;5032275;28;20079;-64
2021/12/10 04:36:07;;;;;;;10.60;3.95;;;-1.10;99.90;;;;;;5033210;28;20037;-64
2021/12/10 04:38:34;;;;;;;5.05;3.40;;;-0.60;99.90;;;;;;5033438;28;20384;-64
2021/12/10 04:41:01;;;;;;;8.77;3.80;;;;;;;;;;5033340;28;20052;-64
2021/12/10 04:43:29;;;;;;;5.97;3.40;;;-0.40;99.90;;;;;;5032742;28;20431;-65
2021/12/10 04:45:57;;;;;;;11.25;3.65;;;-1.50;99.90;;;;;;5033683;28;20458;-64
2021/12/10 04:48:24;;;;;;;12.38;4.80;;;-0.70;99.90;;;;;;5033910;28;20049;-63
2021/12/10 04:50:50;;;;;;;6.47;4.50;;;0.00;99.90;;;;;;5032880;28;20043;-63
2021/12/10 04:53:16;;;;;;;8.73;4.88;;;-0.60;99.90;;;;;;5033148;28;20030;-61
2021/12/10 04:55:43;;;;;;;9.70;5.78;;;-0.40;99.90;;;;;;5032551;28;20033;-62
2021/12/10 04:58:10;;;;;;;10.55;5.75;;;-1.00;99.90;;;;;;5032262;28;20029;-63
2021/12/10 05:00:42;;;;;;;13.30;6.00;;;-0.90;99.90;;;;;;5032201;28;20029;-62
2021/12/10 05:03:08;;;;;;;16.60;6.57;;;-1.10;99.90;;;;;;5016489;28;20155;-63
2021/12/10 05:05:36;;;;;;;14.27;6.30;;;-0.70;99.90;;;;;;5032416;28;20017;-63
2021/12/10 05:08:03;;;;;;;18.20;6.65;;;-0.70;99.90;;;;;;5014247;28;20643;-62
2021/12/10 05:10:29;;;;;;;15.25;7.20;;;-1.00;99.90;;;;;;5012958;28;20029;-60
2021/12/10 05:12:55;;;;;;;9.00;5.57;;;-0.10;99.90;;;;;;5011559;28;20034;-63
2021/12/10 05:15:24;;;;;;;16.27;6.20;;;-1.10;99.90;;;;;;5029314;28;20040;-62
2021/12/10 05:17:53;;;;;;;16.90;7.65;;;-1.30;99.90;;;;;;5022722;28;20026;-64
2021/12/10 05:20:24;;;;;;;13.45;6.15;;;-1.10;99.90;;;;;;5031660;28;20017;-62
2021/12/10 05:22:51;;;;;;;16.23;6.53;;;-0.40;99.90;;;;;;5025267;28;20033;-69
2021/12/10 05:25:18;;;;;;;16.10;6.28;;;-1.30;99.90;;;;;;5018864;28;20034;-68
2021/12/10 05:27:44;;;;;;;12.13;6.20;;;-1.10;99.90;;;;;;5024356;28;20045;-65
2021/12/10 05:30:14;;;;;;;7.43;5.72;;;-0.90;99.90;;;;;;5024604;28;20073;-66
2021/12/10 05:32:40;;;;;;;14.90;5.90;;;-0.80;99.90;;;;;;5024460;28;20103;-64
2021/12/10 05:35:07;;;;;;;16.55;6.75;;;-0.20;99.90;;;;;;5032908;28;20061;-66
2021/12/10 05:37:33;;;;;;;15.88;6.43;;;-0.90;99.90;;;;;;5033108;28;20105;-68
2021/12/10 05:39:59;;;;;;;14.52;6.90;;;-1.00;99.90;;;;;;5034532;28;20033;-68
2021/12/10 05:42:25;;;;;;;14.27;6.50;;;-0.80;99.90;;;;;;5023529;28;20080;-68
2021/12/10 05:44:51;;;;;;;14.23;6.78;;;-0.70;99.90;;;;;;5028036;28;20025;-67
2021/12/10 05:47:17;;;;;;;15.02;7.97;;;-1.20;99.90;;;;;;5034430;28;20056;-68
2021/12/10 05:49:43;;;;;;;14.63;7.15;;;;;;;;;;5034413;28;20029;-67
2021/12/10 05:52:09;;;;;;;21.23;8.13;;;-0.70;99.90;;;;;;5034251;28;20088;-66
2021/12/10 05:54:36;;;;;;;16.00;7.55;;;-0.80;99.90;;;;;;5033399;28;20399;-68
2021/12/10 05:57:03;;;;;;;16.83;7.32;;;-1.20;99.90;;;;;;5034555;28;20021;-66
2021/12/10 05:59:30;;;;;;;17.83;7.57;;;-0.40;99.90;;;;;;5036299;28;20047;-66
2021/12/10 06:01:56;;;;;;;19.70;7.63;;;-1.70;99.90;;;;;;5036839;28;20022;-68
2021/12/10 06:04:26;;;;;;;11.82;7.63;;;-1.00;99.90;;;;;;5033552;28;20029;-68
2021/12/10 06:06:53;;;;;;;18.45;7.80;;;-0.30;99.90;;;;;;5033885;28;20395;-67
2021/12/10 06:09:19;;;;;;;14.07;7.30;;;-0.90;99.90;;;;;;5034220;28;20034;-72
2021/12/10 06:11:45;;;;;;;24.42;7.75;;;-1.10;99.90;;;;;;5034293;28;20067;-65
2021/12/10 06:14:11;;;;;;;19.52;7.97;;;-0.60;99.90;;;;;;5033620;28;20061;-67
2021/12/10 06:16:37;;;;;;;15.57;7.88;;;-0.80;99.90;;;;;;5031692;28;20053;-67
2021/12/10 06:19:05;;;;;;;17.45;7.95;;;-0.50;99.90;;;;;;5031310;28;20026;-68
2021/12/10 06:21:33;;;;;;;21.75;8.07;;;-0.90;99.90;;;;;;5033747;28;20356;-66
2021/12/10 06:23:59;;;;;;;14.38;8.15;;;-1.20;99.90;;;;;;5033213;28;20026;-66
2021/12/10 06:26:26;;;;;;;15.50;8.40;;;-0.90;99.90;;;;;;5032859;28;20025;-68
2021/12/10 06:28:52;;;;;;;18.63;8.68;;;-1.00;99.90;;;;;;5033915;28;20112;-66
2021/12/10 06:31:20;;;;;;;15.55;7.75;;;-0.80;99.90;;;;;;5033671;28;20018;-65
2021/12/10 06:33:47;;;;;;;15.38;7.60;;;-1.00;99.90;;;;;;5032448;28;20026;-66
2021/12/10 06:36:13;;;;;;;23.48;9.13;;;-0.90;99.90;;;;;;5028989;28;20087;-67
2021/12/10 06:38:39;;;;;;;20.33;8.63;;;-0.80;99.90;;;;;;5032537;28;20026;-66
2021/12/10 06:41:06;;;;;;;14.23;7.75;;;-0.90;99.90;;;;;;5025325;28;20040;-67
2021/12/10 06:43:32;;;;;;;15.35;6.97;;;-0.90;99.90;;;;;;5032505;28;20029;-69
2021/12/10 06:46:00;;;;;;;16.80;8.80;;;-1.10;99.90;;;;;;5032079;28;20413;-67
2021/12/10 06:48:27;;;;;;;19.10;8.20;;;-0.60;99.90;;;;;;5033008;28;20068;-68
2021/12/10 06:50:56;;;;;;;21.27;8.90;;;-0.50;99.90;;;;;;5033579;28;20384;-68
2021/12/10 06:53:24;;;;;;;14.73;7.93;;;-0.80;99.90;;;;;;5033418;28;20026;-67
2021/12/10 06:55:50;;;;;;;17.15;7.82;;;-1.00;99.90;;;;;;5031836;28;20483;-69
2021/12/10 06:58:17;;;;;;;19.05;9.15;;;-0.80;99.90;;;;;;5031953;28;20030;-69
2021/12/10 07:00:54;;;;;;;18.77;8.90;;;1.20;99.90;;;;;;5032984;28;20104;-67
2021/12/10 07:03:23;;;;;;;15.98;9.05;;;-1.30;99.90;;;;;;5022381;28;20392;-67
2021/12/10 07:05:52;;;;;;;22.23;9.15;;;-1.00;99.90;;;;;;5015980;28;20033;-65
2021/12/10 07:08:20;;;;;;;18.52;9.48;;;-1.30;99.90;;;;;;5023226;28;20118;-68
2021/12/10 07:10:47;;;;;;;20.77;8.43;;;-0.40;99.90;;;;;;5019142;28;20076;-65
2021/12/10 07:13:15;;;;;;;17.33;8.30;;;-1.00;99.90;;;;;;5029968;28;20033;-66
2021/12/10 07:15:43;;;;;;;17.45;8.70;;;-1.10;99.90;;;;;;5025173;28;20428;-65
2021/12/10 07:18:09;;;;;;;15.18;9.23;;;-1.20;99.90;;;;;;5028634;28;20105;-68
2021/12/10 07:20:37;;;;;;;16.95;9.32;;;-0.60;99.90;;;;;;5032792;28;20124;-66
2021/12/10 07:23:03;;;;;;;23.55;10.30;;;-0.80;99.90;;;;;;5032682;28;20422;-67
2021/12/10 07:25:29;;;;;;;22.48;9.88;;;-1.00;99.90;;;;;;5032268;28;20056;-68
2021/12/10 07:27:55;;;;;;;19.58;9.82;;;-1.10;99.90;;;;;;5028817;28;20056;-68
2021/12/10 07:30:23;;;;;;;21.30;10.10;;;-0.20;99.90;;;;;;5030965;28;20036;-66
2021/12/10 07:32:49;;;;;;;22.10;10.20;;;-0.80;99.90;;;;;;5033275;28;20030;-67
2021/12/10 07:35:16;;;;;;;16.58;8.75;;;-0.90;99.90;;;;;;5031836;28;20028;-66
2021/12/10 07:37:42;;;;;;;18.63;9.18;;;-0.70;99.90;;;;;;5032721;28;20067;-68
2021/12/10 07:40:12;;;;;;;22.48;10.70;;;-0.60;99.90;;;;;;5032820;28;20454;-67
2021/12/10 07:42:37;;;;;;;26.55;11.15;;;-0.60;99.90;;;;;;5032455;28;20810;-68
2021/12/10 07:45:05;;;;;;;31.58;11.38;;;-0.30;99.90;;;;;;5028337;28;20104;-68
2021/12/10 07:47:35;;;;;;;48.45;24.42;;;0.30;99.90;;;;;;5031601;28;20048;-68
2021/12/10 07:50:03;;;;;;;29.50;15.55;;;-0.60;99.90;;;;;;5032670;28;20448;-69
2021/12/10 07:52:34;;;;;;;24.83;12.35;;;-0.30;99.90;;;;;;5050380;28;20053;-73
2021/12/10 07:55:04;;;;;;;29.67;15.47;;;0.00;99.90;;;;;;5049553;28;20169;-68
2021/12/10 07:57:29;;;;;;;23.45;12.38;;;-0.30;99.90;;;;;;5054728;28;20033;-68
2021/12/10 07:59:56;;;;;;;28.13;11.90;;;0.10;99.90;;;;;;5055215;28;20041;-68
2021/12/10 08:02:22;;;;;;;22.70;11.02;;;0.20;99.90;;;;;;5054420;28;20052;-66
2021/12/10 08:04:48;;;;;;;25.13;11.15;;;0.10;99.90;;;;;;5031848;28;20029;-67
2021/12/10 08:07:14;;;;;;;26.77;10.93;;;0.10;99.90;;;;;;5030750;28;20022;-68
2021/12/10 08:09:42;;;;;;;20.90;10.88;;;0.70;99.90;;;;;;5031031;28;20018;-68
2021/12/10 08:12:09;;;;;;;23.13;10.88;;;0.50;99.90;;;;;;5031981;28;20148;-70
2021/12/10 08:14:34;;;;;;;23.60;12.48;;;0.40;99.90;;;;;;5030936;28;20032;-68
2021/12/10 08:17:00;;;;;;;26.48;12.07;;;0.00;99.90;;;;;;5032111;28;20049;-68
2021/12/10 08:19:26;;;;;;;23.02;12.57;;;0.20;99.90;;;;;;5032269;28;20483;-69
2021/12/10 08:21:51;;;;;;;22.08;11.13;;;0.30;99.90;;;;;;5031715;28;20025;-69
2021/12/10 08:24:17;;;;;;;25.85;10.90;;;0.50;99.90;;;;;;5031112;28;20033;-69
2021/12/10 08:26:44;;;;;;;27.23;11.23;;;0.80;99.90;;;;;;5031571;28;20032;-68
2021/12/10 08:29:11;;;;;;;27.75;11.05;;;0.40;99.90;;;;;;5030314;28;20113;-68
2021/12/10 08:31:38;;;;;;;24.33;10.68;;;0.40;99.90;;;;;;5031812;28;20080;-69
2021/12/10 08:34:04;;;;;;;128.57;73.70;;;1.80;99.90;;;;;;5031583;28;20108;-68
2021/12/10 08:36:33;;;;;;;22.77;13.27;;;0.70;99.90;;;;;;5031035;28;20152;-68
2021/12/10 08:38:59;;;;;;;19.00;9.63;;;0.40;99.90;;;;;;5032735;28;20021;-68
2021/12/10 08:41:28;;;;;;;22.00;9.88;;;0.10;99.90;;;;;;5035761;28;20450;-68
2021/12/10 08:43:56;;;;;;;22.38;10.27;;;0.50;99.90;;;;;;5034263;28;20013;-69
2021/12/10 08:46:25;;;;;;;15.15;9.40;;;1.00;99.90;;;;;;5034929;28;20025;-68
2021/12/10 08:48:50;;;;;;;16.85;10.68;;;0.20;99.90;;;;;;5037084;28;20045;-69
2021/12/10 08:51:29;;;;;;;20.50;10.18;;;0.40;99.90;;;;;;5039447;28;20402;-68
2021/12/10 08:53:54;;;;;;;23.95;9.10;;;0.70;99.90;;;;;;5032497;28;20021;-69
2021/12/10 08:56:21;;;;;;;19.08;8.73;;;0.60;99.90;;;;;;5031270;28;20030;-69
2021/12/10 08:58:47;;;;;;;15.63;7.57;;;0.90;99.90;;;;;;5031742;28;20040;-69
2021/12/10 09:01:23;;;;;;;21.35;9.98;;;0.70;99.90;;;;;;5031360;28;20025;-68
2021/12/10 09:03:53;;;;;;;18.83;9.82;;;1.30;99.90;;;;;;5031440;28;20077;-69
2021/12/10 09:06:21;;;;;;;16.40;9.07;;;0.80;99.90;;;;;;5030837;28;20022;-69
2021/12/10 09:08:47;;;;;;;17.13;8.68;;;1.60;99.90;;;;;;5035472;28;20030;-68
2021/12/10 09:11:13;;;;;;;19.73;10.10;;;1.60;99.90;;;;;;5039451;28;20033;-68
2021/12/10 09:13:39;;;;;;;20.15;8.52;;;1.90;99.90;;;;;;5036649;28;20085;-68
2021/12/10 09:16:17;;;;;;;16.33;9.10;;;1.40;99.90;;;;;;5036052;28;20394;-69
2021/12/10 09:18:42;;;;;;;47.20;23.77;;;1.60;99.90;;;;;;5037040;28;20021;-68
2021/12/10 09:21:09;;;;;;;22.52;12.05;;;1.80;99.90;;;;;;5037237;28;20026;-68
2021/12/10 09:23:36;;;;;;;14.30;8.63;;;1.80;99.90;;;;;;5035009;28;20021;-69
2021/12/10 09:26:13;;;;;;;16.67;8.32;;;1.60;99.90;;;;;;5034643;28;20049;-69
2021/12/10 09:28:42;;;;;;;16.02;8.50;;;1.80;99.90;;;;;;5035068;28;20468;-69
2021/12/10 09:31:08;;;;;;;13.02;6.97;;;2.00;99.90;;;;;;5035016;28;20037;-69
2021/12/10 09:33:34;;;;;;;13.85;7.00;;;2.00;99.90;;;;;;5035570;28;20565;-69
2021/12/10 09:36:01;;;;;;;10.95;6.38;;;1.70;99.90;;;;;;5034496;28;20041;-69
2021/12/10 09:38:27;;;;;;;13.43;7.13;;;1.50;99.90;;;;;;5029718;28;20025;-68
2021/12/10 09:40:58;;;;;;;12.55;8.88;;;2.00;99.90;;;;;;5015070;28;20032;-68
2021/12/10 09:43:25;;;;;;;16.30;7.63;;;1.80;99.90;;;;;;5017871;28;20025;-70
2021/12/10 09:45:52;;;;;;;9.82;7.57;;;2.50;99.90;;;;;;5033711;28;20087;-70
2021/12/10 09:48:20;;;;;;;10.60;8.15;;;2.00;99.90;;;;;;5034928;28;20621;-76
2021/12/10 09:50:56;;;;;;;10.82;8.07;;;2.30;99.90;;;;;;5034715;28;20561;-68
2021/12/10 09:53:26;;;;;;;10.93;6.68;;;1.90;99.90;;;;;;5034738;28;20033;-68
2021/12/10 09:55:53;;;;;;;10.30;7.25;;;3.20;99.90;;;;;;5034144;28;20024;-68
2021/12/10 09:58:19;;;;;;;8.68;6.53;;;2.40;99.90;;;;;;5034691;28;20381;-68
2021/12/10 10:01:00;;;;;;;9.68;6.45;;;1.80;99.90;;;;;;5034126;28;20539;-69
2021/12/10 10:03:30;;;;;;;11.63;6.65;;;2.60;99.90;;;;;;5034775;28;20065;-69
2021/12/10 10:05:56;;;;;;;10.60;6.43;;;2.60;99.90;;;;;;5033740;28;20057;-68
2021/12/10 10:08:25;;;;;;;9.13;5.88;;;2.50;99.90;;;;;;5033845;28;20029;-67
2021/12/10 10:10:55;;;;;;;9.45;5.85;;;2.50;99.90;;;;;;5023242;28;20470;-69
2021/12/10 10:13:38;;;;;;;11.65;5.90;;;2.70;99.90;;;;;;5016612;28;20476;-69
2021/12/10 10:16:05;;;;;;;10.63;5.93;;;3.30;99.90;;;;;;5033059;28;20029;-69
2021/12/10 10:18:35;;;;;;;10.95;6.68;;;3.00;99.90;;;;;;5033551;28;20421;-69
2021/12/10 10:21:05;;;;;;;13.25;6.28;;;2.50;99.90;;;;;;5033678;28;20037;-68
2021/12/10 10:23:31;;;;;;;13.57;5.78;;;3.00;99.90;;;;;;5033667;28;20498;-68
2021/12/10 10:26:00;;;;;;;10.00;5.32;;;2.90;99.90;;;;;;5033186;28;20025;-70
2021/12/10 10:28:26;;;;;;;9.45;5.90;;;3.00;99.90;;;;;;5033744;28;20441;-68
2021/12/10 10:31:01;;;;;;;9.55;5.55;;;3.40;99.90;;;;;;5034006;28;20038;-70
2021/12/10 10:33:30;;;;;;;7.65;5.00;;;3.80;99.90;;;;;;5033597;28;20029;-70
2021/12/10 10:35:59;;;;;;;10.68;4.45;;;3.10;99.90;;;;;;5033082;28;20398;-69
2021/12/10 10:38:26;;;;;;;7.55;4.18;;;3.60;99.90;;;;;;5033458;28;20017;-70
2021/12/10 10:41:00;;;;;;;7.32;4.45;;;3.20;99.90;;;;;;5033473;28;20040;-71
2021/12/10 10:43:27;;;;;;;8.00;4.45;;;3.40;99.90;;;;;;5033462;28;20025;-70
2021/12/10 10:45:55;;;;;;;7.05;4.05;;;3.50;99.90;;;;;;5032380;28;20049;-69
2021/12/10 10:48:21;;;;;;;8.65;3.67;;;3.60;99.90;;;;;;5033237;28;20036;-70
2021/12/10 10:50:57;;;;;;;7.50;3.88;;;3.20;99.90;;;;;;5033445;28;20106;-70
2021/12/10 10:53:27;;;;;;;5.55;3.10;;;3.80;99.90;;;;;;5033196;28;20024;-71
2021/12/10 10:56:00;;;;;;;3.83;2.35;;;3.20;99.90;;;;;;5032771;28;20454;-70
2021/12/10 10:58:30;;;;;;;3.40;2.38;;;3.20;99.90;;;;;;5033165;28;20029;-69
2021/12/10 11:01:02;;;;;;;3.00;2.70;;;3.00;99.90;;;;;;5033418;28;20024;-70
2021/12/10 11:03:53;;;;;;;8.02;3.38;;;4.30;99.90;;;;;;5033431;28;20021;-71
2021/12/10 11:06:27;;;;;;;5.43;3.80;;;3.50;99.90;;;;;;5011311;28;20030;-69
2021/12/10 11:09:13;;;;;;;10.38;7.03;;;4.00;99.90;;;;;;5032844;28;20045;-70
2021/12/10 11:11:49;;;;;;;11.98;5.85;;;3.40;99.90;;;;;;5033044;28;20060;-70
2021/12/10 11:14:21;;;;;;;12.55;5.72;;;3.50;99.90;;;;;;5032295;28;20395;-69
2021/12/10 11:16:49;;;;;;;15.38;8.35;;;3.50;99.90;;;;;;5032502;28;20410;-71
2021/12/10 11:19:24;;;;;;;13.77;7.05;;;3.70;99.90;;;;;;5032335;28;20391;-69
2021/12/10 11:22:03;;;;;;;20.73;8.20;;;3.30;99.90;;;;;;5030604;28;20510;-69
2021/12/10 11:24:43;;;;;;;13.75;7.20;;;3.80;99.90;;;;;;5027579;28;20047;-68
2021/12/10 11:27:13;;;;;;;20.95;6.85;;;3.30;99.90;;;;;;5032424;28;20503;-73
2021/12/10 11:30:02;;;;;;;14.75;6.68;;;3.20;99.90;;;;;;5031690;28;20434;-70
2021/12/10 11:32:37;;;;;;;11.48;6.47;;;4.10;99.90;;;;;;5023134;28;20048;-69
2021/12/10 11:35:14;;;;;;;13.50;7.13;;;3.40;99.90;;;;;;5031964;28;20116;-69
2021/12/10 11:37:46;;;;;;;8.90;6.10;;;3.20;99.90;;;;;;5032377;28;20490;-70
2021/12/10 11:40:35;;;;;;;9.85;6.10;;;3.20;99.90;;;;;;5032676;28;20029;-70
2021/12/10 11:43:52;;;;;;;16.50;6.18;;;;;;;;;;5012993;28;20022;-68
2021/12/10 11:48:41;;;;;;;8.82;4.97;;;3.40;99.90;;;;;;5012941;28;20073;-70
2021/12/10 11:51:25;;;;;;;10.25;5.13;;;3.40;99.90;;;;;;5013055;28;20041;-72
2021/12/10 11:54:00;;;;;;;7.88;3.80;;;3.40;99.90;;;;;;5023840;28;20022;-71
2021/12/10 11:56:28;;;;;;;9.15;4.70;;;3.30;99.90;;;;;;5024765;28;20060;-70
2021/12/10 11:59:05;;;;;;;6.18;4.03;;;3.30;99.90;;;;;;5014726;28;20022;-70
2021/12/10 12:01:33;;;;;;;7.90;2.72;;;3.80;99.90;;;;;;5014044;28;20412;-70
2021/12/10 12:04:23;;;;;;;4.45;1.98;;;3.60;99.90;;;;;;5014152;28;20018;-69
2021/12/10 12:07:17;;;;;;;3.63;2.45;;;3.00;99.90;;;;;;5013159;28;20515;-69
2021/12/10 12:09:56;;;;;;;4.35;2.85;;;4.00;99.90;;;;;;5012466;28;20034;-70
2021/12/10 12:12:28;;;;;;;5.72;2.88;;;3.20;99.90;;;;;;5012310;28;20092;-70
2021/12/10 12:15:12;;;;;;;5.68;3.13;;;3.40;99.90;;;;;;5026312;28;20061;-69
2021/12/10 12:17:48;;;;;;;7.85;3.60;;;3.30;99.90;;;;;;5032010;28;20013;-68
2021/12/10 12:20:32;;;;;;;6.47;2.83;;;3.20;99.90;;;;;;5032009;28;20049;-69
2021/12/10 12:25:54;;;;;;;3.53;2.78;;;3.60;99.90;;;;;;5031367;28;20032;-71
2021/12/10 12:28:23;;;;;;;4.32;2.67;;;3.40;99.90;;;;;;5032488;28;20029;-71
2021/12/10 12:31:11;;;;;;;4.05;2.20;;;3.60;99.90;;;;;;5032250;28;20033;-70
2021/12/10 12:34:13;;;;;;;4.07;3.13;;;3.80;99.90;;;;;;5032095;28;20053;-69
2021/12/10 12:37:00;;;;;;;5.88;3.22;;;3.60;99.90;;;;;;4999679;28;20033;-69
2021/12/10 12:39:31;;;;;;;5.72;3.13;;;3.50;99.90;;;;;;5031745;28;20102;-72
2021/12/10 12:41:59;;;;;;;5.05;4.40;;;3.60;99.90;;;;;;5031963;28;20022;-71
2021/12/10 12:44:36;;;;;;;7.30;3.42;;;4.00;99.90;;;;;;5035018;28;20038;-72
2021/12/10 12:47:07;;;;;;;5.82;3.15;;;3.70;99.90;;;;;;5034954;28;20025;-70
2021/12/10 12:49:56;;;;;;;8.02;4.93;;;3.80;99.90;;;;;;5035454;28;20032;-67
2021/12/10 12:52:29;;;;;;;8.77;4.15;;;3.90;99.90;;;;;;5035309;28;20022;-73
2021/12/10 12:55:29;;;;;;;6.55;3.40;;;3.50;99.90;;;;;;5034166;28;20025;-73
2021/12/10 12:58:03;;;;;;;7.70;3.65;;;3.60;99.90;;;;;;5027191;28;20029;-69
2021/12/10 13:00:35;;;;;;;14.57;10.18;;;4.30;99.90;;;;;;5034203;28;20475;-69
2021/12/10 13:03:18;;;;;;;14.07;7.07;;;4.00;99.90;;;;;;5034698;28;20029;-68
2021/12/10 13:05:48;;;;;;;13.13;7.65;;;3.50;99.90;;;;;;5034595;28;20072;-68
2021/12/10 13:08:22;;;;;;;27.15;15.55;;;3.60;99.90;;;;;;5035872;28;20051;-68
2021/12/10 13:11:14;;;;;;;32.55;19.63;;;3.50;99.90;;;;;;5036062;28;20418;-68
2021/12/10 13:14:12;;;;;;;19.27;11.73;;;4.10;99.90;;;;;;5034689;28;20064;-68